BSGM7: Big Sugar Creek near Powell, MO

Data processed at Mon Apr 24 2017 21:30


All information presented herein is the property of the government of the United States of America and may be revised or deleted at any time without prior notice.
Dissemination of this information without the expressed written consent of the Public Affairs Office, Tulsa District U.S. Army Corps of Engineers is strictly prohibited.
These data are gathered electronically and, as presented, have not undergone any form of quality control. These data are not guaranteed to be valid or correct.
Go to home page.
Go to station list.
Go to station map.

Downstream station:


Previous Day
Next Day
Current Day
    
SHEF ID:       BSGM7     Big Sugar Creek near Powell, MO
STATION TYPE:  

               PRECIP     STAGE  RIV-FLOW  BAT-LOAD
                   in        ft       cfs      volt
              Ccp-Rev   Ccp-Rev   Ccp-Rev   Ccp-Rev
(US/Central)
04/24 00:00      0.00      6.77      1029     12.71
04/24 01:00      0.01      6.74       995     12.71
04/24 02:00      0.00      6.71       957     12.65
04/24 03:00      0.00      6.68       924     12.65
04/24 04:00      0.00      6.65       891     12.65
04/24 05:00      0.01      6.64       877     12.48
04/24 06:00      0.00      6.61       846     12.60
04/24 07:00      0.00      6.58       815     12.60
04/24 08:00      0.00      6.56       793     12.65
04/24 09:00      0.00      6.55       780     14.24
04/24 10:00      0.00      6.52       750     14.59
04/24 11:00      0.01      6.49       721     14.47
04/24 12:00      0.00      6.48       709     13.94
04/24 13:00      0.00      6.45       681     13.65
04/24 14:00      0.01      6.43       661     13.77
04/24 15:00      0.00      6.41       641     13.65
04/24 16:00      0.00      6.39       626     13.59
04/24 17:00      0.00      6.38       614     13.12
04/24 18:00      0.00      6.36       595     12.89
04/24 19:00      0.01      6.34       577     12.77
04/24 20:00      0.00      6.33       570     12.77
04/24 21:00      0.00      6.31       552     12.65
04/24 22:00      ----      ----      ----      ----
04/24 23:00      ----      ----      ----      ----